createdAt,value
2023-07-24T00:00:13.191Z,1.90
2023-07-24T00:02:39.477Z,1.80
2023-07-24T00:05:05.969Z,1.58
2023-07-24T00:07:32.282Z,1.38
2023-07-24T00:09:58.640Z,1.58
2023-07-24T00:12:24.981Z,1.60
2023-07-24T00:14:52.847Z,1.52
2023-07-24T00:17:19.396Z,1.50
2023-07-24T00:19:45.859Z,1.70
2023-07-24T00:22:12.255Z,1.77
2023-07-24T00:24:38.633Z,1.80
2023-07-24T00:27:05.173Z,1.67
2023-07-24T00:29:31.552Z,1.70
2023-07-24T00:31:57.878Z,1.70
2023-07-24T00:34:24.202Z,1.42
2023-07-24T00:36:51.277Z,1.73
2023-07-24T00:39:17.653Z,1.80
2023-07-24T00:41:44.401Z,1.50
2023-07-24T00:44:10.814Z,2.10
2023-07-24T00:46:37.302Z,1.75
2023-07-24T00:49:04.983Z,1.65
2023-07-24T00:51:31.623Z,1.55
2023-07-24T00:53:58.809Z,1.65
2023-07-24T00:56:25.208Z,1.65
2023-07-24T00:58:52.739Z,1.40
2023-07-24T01:01:19.349Z,1.40
2023-07-24T01:03:45.711Z,1.60
2023-07-24T01:06:12.044Z,1.85
2023-07-24T01:08:38.361Z,1.83
2023-07-24T01:11:08.608Z,1.50
2023-07-24T01:13:41.353Z,1.80
2023-07-24T01:16:11.384Z,1.60
2023-07-24T01:18:39.791Z,1.63
2023-07-24T01:21:09.439Z,1.70
2023-07-24T01:23:35.742Z,1.50
2023-07-24T01:26:05.294Z,1.63
2023-07-24T01:28:31.631Z,1.90
2023-07-24T01:30:58.556Z,1.30
2023-07-24T01:33:25.329Z,1.48
2023-07-24T01:35:55.878Z,1.70
2023-07-24T01:38:23.837Z,1.50
2023-07-24T01:40:50.538Z,1.80
2023-07-24T01:43:16.851Z,1.63
2023-07-24T01:45:43.168Z,1.75
2023-07-24T01:48:09.713Z,1.63
2023-07-24T01:50:36.391Z,1.60
2023-07-24T01:53:02.694Z,1.50
2023-07-24T01:55:29.038Z,1.80
2023-07-24T01:57:55.442Z,1.55
2023-07-24T02:00:21.799Z,1.83
2023-07-24T02:02:48.166Z,1.50
2023-07-24T02:05:14.569Z,1.60
2023-07-24T02:07:40.907Z,1.88
2023-07-24T02:10:07.557Z,1.67
2023-07-24T02:12:33.973Z,1.60
2023-07-24T02:15:00.828Z,1.80
2023-07-24T02:17:27.380Z,1.60
2023-07-24T02:19:53.709Z,1.77
2023-07-24T02:22:20.077Z,1.77
2023-07-24T02:24:46.466Z,1.80
2023-07-24T02:27:13.720Z,1.60
2023-07-24T02:29:40.036Z,2.20
2023-07-24T02:32:06.549Z,1.70
2023-07-24T02:34:32.950Z,1.83
2023-07-24T02:36:59.337Z,1.77
2023-07-24T02:39:25.665Z,1.80
2023-07-24T02:41:51.996Z,2.00
2023-07-24T02:44:18.357Z,2.28
2023-07-24T02:46:44.762Z,1.90
2023-07-24T02:49:11.132Z,1.90
2023-07-24T02:51:37.536Z,2.05
2023-07-24T02:54:03.892Z,1.60
2023-07-24T02:56:30.389Z,2.08
2023-07-24T02:58:56.978Z,1.80
2023-07-24T03:01:23.834Z,1.95
2023-07-24T03:03:51.499Z,1.90
2023-07-24T03:06:17.871Z,1.73
2023-07-24T03:08:44.304Z,1.88
2023-07-24T03:11:10.645Z,2.33
2023-07-24T03:13:36.989Z,1.77
2023-07-24T03:16:03.492Z,2.72
2023-07-24T03:18:29.862Z,2.10
2023-07-24T03:20:58.183Z,1.63
2023-07-24T03:23:24.519Z,2.00
2023-07-24T03:25:50.845Z,2.28
2023-07-24T03:28:17.156Z,2.08
2023-07-24T03:30:43.484Z,2.00
2023-07-24T03:33:09.937Z,2.03
2023-07-24T03:35:36.321Z,1.90
2023-07-24T03:38:02.687Z,1.95
2023-07-24T03:40:29.043Z,2.20
2023-07-24T03:42:55.437Z,2.20
2023-07-24T03:45:21.921Z,1.80
2023-07-24T03:47:48.317Z,2.20
2023-07-24T03:50:14.784Z,2.05
2023-07-24T03:52:41.166Z,2.05
2023-07-24T03:55:09.032Z,2.10
2023-07-24T03:57:35.578Z,2.13
2023-07-24T04:00:02.376Z,2.00
2023-07-24T04:02:28.761Z,2.10
2023-07-24T04:04:55.178Z,2.42
2023-07-24T04:07:21.547Z,1.92
2023-07-24T04:09:47.878Z,2.10
2023-07-24T04:12:14.312Z,1.80
2023-07-24T04:14:40.650Z,2.20
2023-07-24T04:17:07.044Z,2.20
2023-07-24T04:19:34.532Z,2.30
2023-07-24T04:22:00.865Z,1.80
2023-07-24T04:24:27.207Z,2.00
2023-07-24T04:26:53.586Z,1.88
2023-07-24T04:29:24.620Z,2.13
2023-07-24T04:31:51.551Z,2.22
2023-07-24T04:34:17.962Z,1.88
2023-07-24T04:36:44.325Z,1.92
2023-07-24T04:39:10.641Z,1.95
2023-07-24T04:41:37.009Z,2.00
2023-07-24T04:44:03.418Z,1.90
2023-07-24T04:46:30.092Z,1.90
2023-07-24T04:48:56.660Z,2.00
2023-07-24T04:51:24.013Z,2.20
2023-07-24T04:53:50.352Z,2.00
2023-07-24T04:56:18.740Z,2.30
2023-07-24T04:58:45.205Z,2.40
2023-07-24T05:01:11.576Z,1.83
2023-07-24T05:03:40.143Z,2.10
2023-07-24T05:06:06.566Z,1.98
2023-07-24T05:08:33.025Z,1.90
2023-07-24T05:10:59.954Z,2.17
2023-07-24T05:13:27.049Z,2.08
2023-07-24T05:15:53.556Z,1.98
2023-07-24T05:18:20.020Z,2.10
2023-07-24T05:20:48.301Z,2.10
2023-07-24T05:23:14.874Z,2.20
2023-07-24T05:25:41.462Z,1.90
2023-07-24T05:28:07.843Z,1.98
2023-07-24T05:30:34.460Z,2.08
2023-07-24T05:33:01.151Z,2.00
2023-07-24T05:35:27.619Z,2.17
2023-07-24T05:37:53.945Z,2.00
2023-07-24T05:40:20.374Z,2.13
2023-07-24T05:42:47.121Z,1.80
2023-07-24T05:45:13.547Z,2.10
2023-07-24T05:47:39.977Z,2.08
2023-07-24T05:50:06.620Z,2.25
2023-07-24T05:52:33.034Z,1.63
2023-07-24T05:54:59.435Z,1.67
2023-07-24T05:57:25.787Z,1.50
2023-07-24T05:59:53.101Z,1.58
2023-07-24T06:02:19.428Z,1.50
2023-07-24T06:04:45.821Z,1.50
2023-07-24T06:07:12.206Z,1.52
2023-07-24T06:09:38.554Z,1.65
2023-07-24T06:12:05.177Z,1.67
2023-07-24T06:14:31.530Z,1.58
2023-07-24T06:16:58.019Z,1.60
2023-07-24T06:19:24.411Z,1.58
2023-07-24T06:21:50.821Z,1.58
2023-07-24T06:24:17.248Z,1.50
2023-07-24T06:26:43.619Z,1.30
2023-07-24T06:29:09.930Z,1.48
2023-07-24T06:31:36.313Z,1.60
2023-07-24T06:34:02.714Z,1.40
2023-07-24T06:36:29.260Z,1.38
2023-07-24T06:38:55.728Z,1.60
2023-07-24T06:41:23.989Z,1.60
2023-07-24T06:43:50.629Z,1.65
2023-07-24T06:46:16.969Z,1.30
2023-07-24T06:48:43.343Z,1.25
2023-07-24T06:51:09.858Z,1.20
2023-07-24T06:53:36.277Z,1.45
2023-07-24T06:56:02.976Z,1.58
2023-07-24T06:58:29.365Z,1.10
2023-07-24T07:00:55.708Z,1.20
2023-07-24T07:03:22.200Z,1.00
2023-07-24T07:05:49.813Z,1.17
2023-07-24T07:08:16.140Z,1.38
2023-07-24T07:10:44.641Z,1.30
2023-07-24T07:13:10.955Z,1.30
2023-07-24T07:15:37.783Z,1.10
2023-07-24T07:18:04.436Z,1.30
2023-07-24T07:20:30.962Z,1.23
2023-07-24T07:22:57.431Z,1.17
2023-07-24T07:25:23.810Z,1.73
2023-07-24T07:27:50.110Z,1.20
2023-07-24T07:30:17.490Z,1.30
2023-07-24T07:32:43.965Z,1.30
2023-07-24T07:35:10.397Z,1.25
2023-07-24T07:37:36.727Z,1.33
2023-07-24T07:40:04.091Z,1.15
2023-07-24T07:42:30.417Z,1.50
2023-07-24T07:44:57.056Z,1.27
2023-07-24T07:47:24.448Z,1.50
2023-07-24T07:49:50.783Z,0.90
2023-07-24T07:52:18.600Z,1.20
2023-07-24T07:54:48.516Z,1.15
2023-07-24T07:57:14.857Z,1.25
2023-07-24T07:59:41.262Z,1.00
2023-07-24T08:02:07.784Z,1.00
2023-07-24T08:04:34.165Z,1.23
2023-07-24T08:07:00.725Z,1.38
2023-07-24T08:09:27.081Z,1.42
2023-07-24T08:11:53.478Z,1.38
2023-07-24T08:14:19.838Z,1.30
2023-07-24T08:16:48.871Z,1.30
2023-07-24T08:19:15.285Z,1.27
2023-07-24T08:21:41.597Z,1.42
2023-07-24T08:24:08.031Z,1.50
2023-07-24T08:26:34.374Z,1.15
2023-07-24T08:29:00.949Z,1.75
2023-07-24T08:31:27.450Z,1.92
2023-07-24T08:33:55.349Z,1.58
2023-07-24T08:36:21.686Z,1.80
2023-07-24T08:38:48.614Z,1.50
2023-07-24T08:41:15.513Z,2.28
2023-07-24T08:43:42.698Z,1.50
2023-07-24T08:46:09.512Z,1.40
2023-07-24T08:48:37.198Z,1.13
2023-07-24T08:51:04.701Z,1.35
2023-07-24T08:53:34.959Z,1.40
2023-07-24T08:56:02.749Z,1.08
2023-07-24T08:58:29.162Z,1.17
2023-07-24T09:00:57.438Z,0.80
2023-07-24T09:03:23.947Z,0.90
2023-07-24T09:05:50.353Z,1.10
2023-07-24T09:08:16.884Z,1.00
2023-07-24T09:10:43.299Z,1.20
2023-07-24T09:13:12.815Z,1.13
2023-07-24T09:15:42.962Z,1.17
2023-07-24T09:18:09.457Z,1.20
2023-07-24T09:20:43.433Z,1.35
2023-07-24T09:23:16.291Z,1.70
2023-07-24T09:25:44.508Z,1.42
2023-07-24T09:28:12.069Z,1.13
2023-07-24T09:30:39.084Z,1.30
2023-07-24T09:33:06.010Z,1.10
2023-07-24T09:35:33.213Z,1.25
2023-07-24T09:38:03.864Z,1.20
2023-07-24T09:40:38.089Z,1.40
2023-07-24T09:43:30.191Z,1.40
2023-07-24T09:45:51.569Z,1.20
2023-07-24T09:48:40.965Z,1.25
2023-07-24T09:51:04.914Z,1.20
2023-07-24T09:53:44.264Z,1.15
2023-07-24T09:56:11.025Z,1.10
2023-07-24T09:58:38.602Z,1.30
2023-07-24T10:01:08.686Z,1.30
2023-07-24T10:03:35.935Z,1.20
2023-07-24T10:06:02.714Z,1.40
2023-07-24T10:08:29.281Z,1.40
2023-07-24T10:10:56.038Z,1.63
2023-07-24T10:13:22.887Z,2.05
2023-07-24T10:15:49.849Z,1.45
2023-07-24T10:18:17.611Z,1.48
2023-07-24T10:20:43.969Z,1.55
2023-07-24T10:23:11.050Z,1.30
2023-07-24T10:25:41.690Z,1.55
2023-07-24T10:28:11.649Z,1.40
2023-07-24T10:30:43.425Z,1.05
2023-07-24T10:33:11.334Z,1.52
2023-07-24T10:35:38.446Z,1.60
2023-07-24T10:38:04.900Z,1.85
2023-07-24T10:40:31.973Z,1.63
2023-07-24T10:43:21.881Z,1.20
2023-07-24T10:45:52.386Z,1.10
2023-07-24T10:48:19.963Z,1.30
2023-07-24T10:50:49.193Z,1.17
2023-07-24T10:53:19.059Z,1.40
2023-07-24T10:55:46.102Z,1.30
2023-07-24T10:58:12.998Z,1.35
2023-07-24T11:00:39.887Z,1.90
2023-07-24T11:03:06.443Z,1.50
2023-07-24T11:05:33.716Z,2.03
2023-07-24T11:08:00.046Z,1.70
2023-07-24T11:10:27.065Z,2.65
2023-07-24T11:12:53.527Z,2.50
2023-07-24T11:15:25.075Z,3.13
2023-07-24T11:17:51.469Z,3.67
2023-07-24T11:20:17.853Z,3.30
2023-07-24T11:22:44.930Z,3.35
2023-07-24T11:25:12.149Z,3.60
2023-07-24T11:27:39.315Z,3.03
2023-07-24T11:30:06.473Z,3.30
2023-07-24T11:32:32.807Z,2.20
2023-07-24T11:34:59.465Z,2.95
2023-07-24T11:37:25.882Z,2.47
2023-07-24T11:40:13.204Z,2.40
2023-07-24T11:42:46.386Z,2.42
2023-07-24T11:45:12.791Z,1.85
2023-07-24T11:47:51.785Z,2.03
2023-07-24T11:50:19.267Z,1.90
2023-07-24T11:52:46.846Z,1.80
2023-07-24T11:55:14.358Z,1.63
2023-07-24T11:57:40.832Z,2.33
2023-07-24T12:00:18.109Z,1.98
2023-07-24T12:02:44.589Z,1.75
2023-07-24T12:05:12.396Z,1.80
2023-07-24T12:07:38.741Z,2.08
2023-07-24T12:10:06.263Z,1.80
2023-07-24T12:12:44.145Z,1.52
2023-07-24T12:15:11.032Z,1.63
2023-07-24T12:17:37.758Z,1.60
2023-07-24T12:20:06.865Z,1.80
2023-07-24T12:22:33.502Z,1.58
2023-07-24T12:25:02.013Z,1.63
2023-07-24T12:27:28.463Z,1.65
2023-07-24T12:29:54.831Z,1.85
2023-07-24T12:32:21.388Z,1.33
2023-07-24T12:34:48.007Z,1.40
2023-07-24T12:37:14.320Z,1.80
2023-07-24T12:39:40.684Z,1.23
2023-07-24T12:42:07.322Z,1.67
2023-07-24T12:44:33.762Z,1.48
2023-07-24T12:47:00.226Z,1.90
2023-07-24T12:49:26.605Z,1.55
2023-07-24T12:51:55.097Z,1.42
2023-07-24T12:54:25.969Z,1.60
2023-07-24T12:56:54.474Z,1.55
2023-07-24T12:59:20.947Z,1.50
2023-07-24T13:01:47.713Z,1.67
2023-07-24T13:04:14.300Z,1.30
2023-07-24T13:06:40.738Z,1.52
2023-07-24T13:09:07.143Z,1.65
2023-07-24T13:11:33.681Z,1.30
2023-07-24T13:14:00.352Z,1.42
2023-07-24T13:16:28.235Z,1.70
2023-07-24T13:18:54.985Z,1.70
2023-07-24T13:21:21.304Z,1.63
2023-07-24T13:23:49.860Z,1.42
2023-07-24T13:26:16.541Z,1.38
2023-07-24T13:28:45.909Z,1.60
2023-07-24T13:31:21.863Z,1.90
2023-07-24T13:33:48.371Z,1.90
2023-07-24T13:36:15.185Z,1.58
2023-07-24T13:38:43.783Z,1.58
2023-07-24T13:41:12.542Z,1.70
2023-07-24T13:43:38.930Z,1.70
2023-07-24T13:46:05.940Z,1.70
2023-07-24T13:48:32.338Z,1.60
2023-07-24T13:50:59.960Z,1.90
2023-07-24T13:53:28.494Z,1.90
2023-07-24T13:55:55.061Z,1.67
2023-07-24T13:58:21.361Z,1.90
2023-07-24T14:00:47.705Z,1.88
2023-07-24T14:03:14.133Z,1.90
2023-07-24T14:05:41.760Z,1.70
2023-07-24T14:08:08.201Z,1.98
2023-07-24T14:10:34.601Z,1.63
2023-07-24T14:13:00.944Z,1.83
2023-07-24T14:15:27.288Z,1.70
2023-07-24T14:17:53.583Z,2.03
2023-07-24T14:20:20.158Z,1.85
2023-07-24T14:22:46.541Z,2.13
2023-07-24T14:25:12.923Z,2.03
2023-07-24T14:27:39.345Z,2.05
2023-07-24T14:30:07.363Z,1.63
2023-07-24T14:32:34.019Z,1.85
2023-07-24T14:35:00.390Z,1.80
2023-07-24T14:37:26.776Z,1.92
2023-07-24T14:39:54.377Z,1.70
2023-07-24T14:42:22.949Z,1.95
2023-07-24T14:44:49.266Z,1.65
2023-07-24T14:47:16.394Z,1.80
2023-07-24T14:49:42.737Z,1.83
2023-07-24T14:52:09.174Z,2.20
2023-07-24T14:54:38.275Z,2.00
2023-07-24T14:57:14.790Z,1.88
2023-07-24T14:59:53.829Z,2.00
2023-07-24T15:02:20.272Z,1.80
2023-07-24T15:04:46.643Z,1.90
2023-07-24T15:07:13.020Z,2.22
2023-07-24T15:09:39.714Z,2.00
2023-07-24T15:12:06.327Z,1.98
2023-07-24T15:14:32.821Z,1.95
2023-07-24T15:16:59.283Z,2.08
2023-07-24T15:19:25.678Z,2.42
2023-07-24T15:21:52.052Z,2.20
2023-07-24T15:24:20.000Z,2.10
2023-07-24T15:26:46.527Z,2.10
2023-07-24T15:29:13.270Z,2.15
2023-07-24T15:31:41.751Z,2.20
2023-07-24T15:34:10.557Z,2.05
2023-07-24T15:36:37.918Z,2.13
2023-07-24T15:39:04.868Z,2.10
2023-07-24T15:41:32.689Z,2.00
2023-07-24T15:43:59.539Z,1.92
2023-07-24T15:46:28.122Z,1.88
2023-07-24T15:48:56.621Z,2.05
2023-07-24T15:51:23.030Z,2.15
2023-07-24T15:53:50.503Z,2.03
2023-07-24T15:56:17.764Z,2.20
2023-07-24T15:58:44.273Z,1.83
2023-07-24T16:01:12.272Z,1.75
2023-07-24T16:03:38.721Z,1.70
2023-07-24T16:06:06.115Z,2.22
2023-07-24T16:08:32.580Z,1.88
2023-07-24T16:10:59.026Z,2.40
2023-07-24T16:13:25.353Z,2.55
2023-07-24T16:15:51.709Z,2.58
2023-07-24T16:18:22.316Z,2.67
2023-07-24T16:20:48.698Z,1.85
2023-07-24T16:23:15.161Z,2.45
2023-07-24T16:25:41.703Z,2.17
2023-07-24T16:28:08.087Z,2.03
2023-07-24T16:30:35.022Z,2.10
2023-07-24T16:33:01.502Z,2.35
2023-07-24T16:35:27.899Z,2.22
2023-07-24T16:37:54.299Z,2.45
2023-07-24T16:40:21.136Z,2.30
2023-07-24T16:42:47.838Z,2.95
2023-07-24T16:47:46.132Z,2.80
2023-07-24T16:50:14.378Z,2.20
2023-07-24T16:52:40.721Z,2.40
2023-07-24T16:55:07.265Z,2.28
2023-07-24T16:57:33.974Z,2.08
2023-07-24T17:00:00.331Z,2.20
2023-07-24T17:02:26.742Z,2.20
2023-07-24T17:04:53.076Z,2.47
2023-07-24T17:07:21.629Z,1.85
2023-07-24T17:09:47.992Z,1.92
2023-07-24T17:12:14.387Z,2.10
2023-07-24T17:14:40.749Z,2.38
2023-07-24T17:17:07.194Z,2.20
2023-07-24T17:19:33.551Z,2.25
2023-07-24T17:21:59.969Z,2.25
2023-07-24T17:24:26.330Z,2.03
2023-07-24T17:26:52.696Z,2.40
2023-07-24T17:29:19.027Z,2.40
2023-07-24T17:31:45.381Z,2.20
2023-07-24T17:34:11.772Z,2.63
2023-07-24T17:36:38.102Z,2.28
2023-07-24T17:39:04.572Z,2.20
2023-07-24T17:41:31.043Z,2.28
2023-07-24T17:43:57.635Z,2.28
2023-07-24T17:46:24.094Z,2.00
2023-07-24T17:48:50.632Z,2.28
2023-07-24T17:51:17.070Z,2.33
2023-07-24T17:53:43.399Z,2.30
2023-07-24T17:56:09.712Z,2.40
2023-07-24T17:58:36.059Z,2.53
2023-07-24T18:01:02.402Z,2.50
2023-07-24T18:03:28.843Z,2.35
2023-07-24T18:05:57.381Z,2.58
2023-07-24T18:08:23.730Z,2.10
2023-07-24T18:10:50.142Z,2.60
2023-07-24T18:13:16.520Z,2.28
2023-07-24T18:15:42.895Z,2.25
2023-07-24T18:18:09.279Z,2.13
2023-07-24T18:20:35.828Z,3.00
2023-07-24T18:23:02.352Z,2.88
2023-07-24T18:25:28.702Z,2.88
2023-07-24T18:27:55.008Z,2.80
2023-07-24T18:30:25.756Z,2.70
2023-07-24T18:32:52.174Z,2.53
2023-07-24T18:35:18.540Z,2.72
2023-07-24T18:37:44.923Z,2.95
2023-07-24T18:40:12.849Z,2.25
2023-07-24T18:42:39.275Z,3.33
2023-07-24T18:45:05.942Z,3.75
2023-07-24T18:47:35.095Z,2.47
2023-07-24T18:50:02.216Z,2.42
2023-07-24T18:52:28.562Z,2.40
2023-07-24T18:54:54.938Z,2.40
2023-07-24T18:57:21.322Z,2.30
2023-07-24T18:59:47.652Z,2.58
2023-07-24T19:02:13.953Z,2.40
2023-07-24T19:04:40.265Z,2.80
2023-07-24T19:07:06.668Z,2.50
2023-07-24T19:09:33.108Z,2.78
2023-07-24T19:11:59.419Z,2.47
2023-07-24T19:14:25.827Z,2.42
2023-07-24T19:16:52.226Z,2.25
2023-07-24T19:19:18.609Z,2.22
2023-07-24T19:21:44.913Z,2.50
2023-07-24T19:24:11.396Z,2.15
2023-07-24T19:26:38.042Z,2.20
2023-07-24T19:29:04.396Z,2.50
2023-07-24T19:31:31.201Z,2.40
2023-07-24T19:33:58.569Z,2.65
2023-07-24T19:36:25.114Z,2.03
2023-07-24T19:38:51.534Z,3.03
2023-07-24T19:41:17.887Z,2.00
2023-07-24T19:43:44.256Z,2.25
2023-07-24T19:46:10.612Z,2.40
2023-07-24T19:48:37.060Z,2.00
2023-07-24T19:51:04.241Z,1.83
2023-07-24T19:53:30.993Z,1.77
2023-07-24T19:55:57.374Z,2.10
2023-07-24T19:58:32.914Z,2.00
2023-07-24T20:01:00.792Z,2.08
2023-07-24T20:03:27.342Z,2.22
2023-07-24T20:05:56.641Z,2.17
2023-07-24T20:08:23.740Z,2.13
2023-07-24T20:10:50.602Z,1.92
2023-07-24T20:13:17.347Z,1.80
2023-07-24T20:15:44.187Z,1.60
2023-07-24T20:18:10.553Z,2.33
2023-07-24T20:20:36.993Z,1.70
2023-07-24T20:23:03.462Z,1.80
2023-07-24T20:25:29.988Z,1.75
2023-07-24T20:27:56.445Z,1.67
2023-07-24T20:30:22.758Z,1.58
2023-07-24T20:32:49.119Z,1.90
2023-07-24T20:35:15.486Z,1.83
2023-07-24T20:37:41.794Z,1.60
2023-07-24T20:40:08.426Z,2.13
2023-07-24T20:42:35.021Z,2.15
2023-07-24T20:45:01.479Z,1.85
2023-07-24T20:47:27.844Z,1.80
2023-07-24T20:49:54.238Z,1.92
2023-07-24T20:52:21.783Z,1.50
2023-07-24T20:54:48.721Z,1.85
2023-07-24T20:57:15.436Z,1.65
2023-07-24T20:59:42.425Z,1.67
2023-07-24T21:02:08.853Z,1.60
2023-07-24T21:04:35.228Z,1.50
2023-07-24T21:07:03.074Z,1.80
2023-07-24T21:09:29.487Z,1.60
2023-07-24T21:11:57.493Z,1.90
2023-07-24T21:14:23.863Z,1.52
2023-07-24T21:16:50.193Z,1.33
2023-07-24T21:19:16.523Z,1.38
2023-07-24T21:21:44.926Z,1.50
2023-07-24T21:24:11.231Z,1.70
2023-07-24T21:26:37.608Z,1.75
2023-07-24T21:29:04.369Z,1.52
2023-07-24T21:31:31.066Z,1.58
2023-07-24T21:33:58.053Z,1.40
2023-07-24T21:36:24.399Z,1.65
2023-07-24T21:38:50.874Z,1.38
2023-07-24T21:41:17.251Z,1.50
2023-07-24T21:43:43.730Z,1.60
2023-07-24T21:46:10.232Z,1.35
2023-07-24T21:48:36.714Z,1.52
2023-07-24T21:51:03.299Z,1.23
2023-07-24T21:53:29.727Z,1.50
2023-07-24T21:55:56.620Z,1.40
2023-07-24T21:58:23.015Z,1.52
2023-07-24T22:00:49.441Z,1.40
2023-07-24T22:03:16.998Z,1.50
2023-07-24T22:05:43.433Z,1.80
2023-07-24T22:08:09.797Z,1.63
2023-07-24T22:10:36.139Z,1.60
2023-07-24T22:13:02.484Z,1.20
2023-07-24T22:15:28.833Z,1.60
2023-07-24T22:17:55.220Z,1.75
2023-07-24T22:22:55.150Z,1.40
2023-07-24T22:25:21.616Z,1.20
2023-07-24T22:27:48.078Z,1.73
2023-07-24T22:30:15.984Z,1.17
2023-07-24T22:32:42.363Z,1.50
2023-07-24T22:35:09.062Z,1.23
2023-07-24T22:37:35.496Z,1.23
2023-07-24T22:40:01.852Z,1.73
2023-07-24T22:42:28.238Z,1.30
2023-07-24T22:44:54.575Z,1.23
2023-07-24T22:47:21.018Z,1.45
2023-07-24T22:49:47.379Z,1.20
2023-07-24T22:52:13.717Z,1.27
2023-07-24T22:54:40.032Z,1.35
2023-07-24T22:57:06.577Z,1.30
2023-07-24T22:59:32.915Z,1.40
2023-07-24T23:01:59.348Z,1.35
2023-07-24T23:04:26.080Z,1.20
2023-07-24T23:06:52.841Z,1.20
2023-07-24T23:09:19.177Z,1.20
2023-07-24T23:11:45.535Z,1.20
2023-07-24T23:14:11.925Z,1.20
2023-07-24T23:16:38.390Z,1.40
2023-07-24T23:19:04.838Z,1.25
2023-07-24T23:21:31.367Z,1.17
2023-07-24T23:23:57.966Z,1.40
2023-07-24T23:26:24.366Z,1.50
2023-07-24T23:28:54.534Z,1.20
2023-07-24T23:31:20.891Z,1.50
2023-07-24T23:33:47.287Z,1.23
2023-07-24T23:36:13.685Z,1.33
2023-07-24T23:38:40.038Z,1.30
2023-07-24T23:41:06.891Z,1.23
2023-07-24T23:43:33.696Z,1.30
2023-07-24T23:46:00.140Z,1.25
2023-07-24T23:48:26.625Z,1.40
2023-07-24T23:50:53.303Z,1.40
2023-07-24T23:53:20.079Z,1.10
2023-07-24T23:55:46.485Z,1.20
2023-07-24T23:58:12.913Z,1.30
